sensor_id;sensor_type;location;lat;lon;timestamp;temperature;humidity
32895;DHT22;19251;49.484;8.260;2023-06-26T00:00:51;22.40;14.40
32895;DHT22;19251;49.484;8.260;2023-06-26T00:05:53;22.20;14.60
32895;DHT22;19251;49.484;8.260;2023-06-26T00:10:55;21.80;14.20
32895;DHT22;19251;49.484;8.260;2023-06-26T00:15:58;22.10;15.10
32895;DHT22;19251;49.484;8.260;2023-06-26T00:21:04;21.90;14.30
32895;DHT22;19251;49.484;8.260;2023-06-26T00:26:07;21.80;15.50
32895;DHT22;19251;49.484;8.260;2023-06-26T00:36:13;21.60;14.90
32895;DHT22;19251;49.484;8.260;2023-06-26T00:41:17;21.60;14.80
32895;DHT22;19251;49.484;8.260;2023-06-26T00:46:20;21.40;15.00
32895;DHT22;19251;49.484;8.260;2023-06-26T00:51:22;21.40;16.00
32895;DHT22;19251;49.484;8.260;2023-06-26T00:56:24;21.30;15.40
32895;DHT22;19251;49.484;8.260;2023-06-26T01:01:27;21.50;16.50
32895;DHT22;19251;49.484;8.260;2023-06-26T01:06:30;21.10;15.60
32895;DHT22;19251;49.484;8.260;2023-06-26T01:11:37;21.10;16.70
32895;DHT22;19251;49.484;8.260;2023-06-26T01:16:40;21.10;16.80
32895;DHT22;19251;49.484;8.260;2023-06-26T01:21:44;21.00;17.00
32895;DHT22;19251;49.484;8.260;2023-06-26T01:26:50;20.90;16.70
32895;DHT22;19251;49.484;8.260;2023-06-26T01:31:53;20.90;16.50
32895;DHT22;19251;49.484;8.260;2023-06-26T01:36:55;20.70;17.30
32895;DHT22;19251;49.484;8.260;2023-06-26T01:41:57;20.80;16.70
32895;DHT22;19251;49.484;8.260;2023-06-26T01:47:04;20.50;16.90
32895;DHT22;19251;49.484;8.260;2023-06-26T01:57:30;20.40;17.10
32895;DHT22;19251;49.484;8.260;2023-06-26T02:02:34;20.40;17.40
32895;DHT22;19251;49.484;8.260;2023-06-26T02:07:37;20.30;18.20
32895;DHT22;19251;49.484;8.260;2023-06-26T02:12:39;20.40;18.40
32895;DHT22;19251;49.484;8.260;2023-06-26T02:17:42;20.30;18.60
32895;DHT22;19251;49.484;8.260;2023-06-26T02:22:44;20.30;18.00
32895;DHT22;19251;49.484;8.260;2023-06-26T02:27:47;20.40;18.80
32895;DHT22;19251;49.484;8.260;2023-06-26T02:32:54;20.20;18.00
32895;DHT22;19251;49.484;8.260;2023-06-26T02:37:56;20.20;18.20
32895;DHT22;19251;49.484;8.260;2023-06-26T02:42:58;20.20;18.40
32895;DHT22;19251;49.484;8.260;2023-06-26T02:48:00;20.20;18.50
32895;DHT22;19251;49.484;8.260;2023-06-26T02:53:05;20.20;19.30
32895;DHT22;19251;49.484;8.260;2023-06-26T02:58:08;20.10;18.60
32895;DHT22;19251;49.484;8.260;2023-06-26T03:03:11;20.20;18.80
32895;DHT22;19251;49.484;8.260;2023-06-26T03:08:15;20.00;18.70
32895;DHT22;19251;49.484;8.260;2023-06-26T03:13:18;20.00;19.00
32895;DHT22;19251;49.484;8.260;2023-06-26T03:18:20;20.00;20.60
32895;DHT22;19251;49.484;8.260;2023-06-26T03:23:23;20.10;19.60
32895;DHT22;19251;49.484;8.260;2023-06-26T03:28:26;20.20;19.80
32895;DHT22;19251;49.484;8.260;2023-06-26T03:33:29;20.00;19.90
32895;DHT22;19251;49.484;8.260;2023-06-26T03:38:31;19.90;20.40
32895;DHT22;19251;49.484;8.260;2023-06-26T03:43:34;19.90;20.40
32895;DHT22;19251;49.484;8.260;2023-06-26T03:48:38;19.90;20.60
32895;DHT22;19251;49.484;8.260;2023-06-26T03:53:41;19.90;20.80
32895;DHT22;19251;49.484;8.260;2023-06-26T03:58:44;19.90;20.10
32895;DHT22;19251;49.484;8.260;2023-06-26T04:03:48;19.90;20.20
32895;DHT22;19251;49.484;8.260;2023-06-26T04:08:51;19.80;20.30
32895;DHT22;19251;49.484;8.260;2023-06-26T04:13:53;20.00;20.70
32895;DHT22;19251;49.484;8.260;2023-06-26T04:18:55;20.00;20.90
32895;DHT22;19251;49.484;8.260;2023-06-26T04:23:58;20.00;20.90
32895;DHT22;19251;49.484;8.260;2023-06-26T04:29:00;20.20;21.00
32895;DHT22;19251;49.484;8.260;2023-06-26T04:34:02;20.00;21.60
32895;DHT22;19251;49.484;8.260;2023-06-26T04:39:05;20.20;21.10
32895;DHT22;19251;49.484;8.260;2023-06-26T04:44:07;20.10;21.00
32895;DHT22;19251;49.484;8.260;2023-06-26T04:49:09;20.40;21.90
32895;DHT22;19251;49.484;8.260;2023-06-26T04:54:11;20.50;21.30
32895;DHT22;19251;49.484;8.260;2023-06-26T04:59:14;20.40;21.80
32895;DHT22;19251;49.484;8.260;2023-06-26T05:04:16;20.70;21.50
32895;DHT22;19251;49.484;8.260;2023-06-26T05:09:19;20.80;22.10
32895;DHT22;19251;49.484;8.260;2023-06-26T05:14:22;20.50;21.90
32895;DHT22;19251;49.484;8.260;2023-06-26T05:19:26;21.20;21.80
32895;DHT22;19251;49.484;8.260;2023-06-26T05:24:30;21.20;21.50
32895;DHT22;19251;49.484;8.260;2023-06-26T05:29:34;24.30;23.90
32895;DHT22;19251;49.484;8.260;2023-06-26T05:34:40;21.70;21.10
32895;DHT22;19251;49.484;8.260;2023-06-26T05:39:43;21.80;21.20
32895;DHT22;19251;49.484;8.260;2023-06-26T05:44:45;22.20;21.80
32895;DHT22;19251;49.484;8.260;2023-06-26T05:49:48;22.70;20.60
32895;DHT22;19251;49.484;8.260;2023-06-26T05:54:50;22.70;20.60
32895;DHT22;19251;49.484;8.260;2023-06-26T05:59:52;22.80;20.90
32895;DHT22;19251;49.484;8.260;2023-06-26T06:04:54;23.10;20.80
32895;DHT22;19251;49.484;8.260;2023-06-26T06:09:57;23.40;20.40
32895;DHT22;19251;49.484;8.260;2023-06-26T06:14:59;23.50;19.50
32895;DHT22;19251;49.484;8.260;2023-06-26T06:20:01;24.10;19.50
32895;DHT22;19251;49.484;8.260;2023-06-26T06:25:04;24.10;18.90
32895;DHT22;19251;49.484;8.260;2023-06-26T06:30:07;24.20;19.00
32895;DHT22;19251;49.484;8.260;2023-06-26T06:35:10;25.10;18.60
32895;DHT22;19251;49.484;8.260;2023-06-26T06:40:12;25.20;18.20
32895;DHT22;19251;49.484;8.260;2023-06-26T06:45:15;25.70;17.10
32895;DHT22;19251;49.484;8.260;2023-06-26T06:50:17;25.70;18.10
32895;DHT22;19251;49.484;8.260;2023-06-26T06:55:20;25.60;17.40
32895;DHT22;19251;49.484;8.260;2023-06-26T07:00:22;26.30;16.80
32895;DHT22;19251;49.484;8.260;2023-06-26T07:05:25;26.60;17.00
32895;DHT22;19251;49.484;8.260;2023-06-26T07:10:27;26.90;16.50
32895;DHT22;19251;49.484;8.260;2023-06-26T07:15:29;27.20;15.30
32895;DHT22;19251;49.484;8.260;2023-06-26T07:20:31;27.50;15.70
32895;DHT22;19251;49.484;8.260;2023-06-26T07:25:33;27.90;15.00
32895;DHT22;19251;49.484;8.260;2023-06-26T07:30:38;28.30;12.60
32895;DHT22;19251;49.484;8.260;2023-06-26T07:35:43;28.10;13.00
32895;DHT22;19251;49.484;8.260;2023-06-26T07:45:48;29.00;11.70
32895;DHT22;19251;49.484;8.260;2023-06-26T07:50:53;29.40;11.30
32895;DHT22;19251;49.484;8.260;2023-06-26T07:55:57;29.90;9.70
32895;DHT22;19251;49.484;8.260;2023-06-26T08:00:59;30.10;9.60
32895;DHT22;19251;49.484;8.260;2023-06-26T08:06:02;30.40;9.30
32895;DHT22;19251;49.484;8.260;2023-06-26T08:11:05;30.80;8.70
32895;DHT22;19251;49.484;8.260;2023-06-26T08:16:07;31.00;8.80
32895;DHT22;19251;49.484;8.260;2023-06-26T08:21:10;31.20;6.80
32895;DHT22;19251;49.484;8.260;2023-06-26T08:26:13;31.20;5.40
32895;DHT22;19251;49.484;8.260;2023-06-26T08:31:16;31.20;5.60
32895;DHT22;19251;49.484;8.260;2023-06-26T08:36:18;31.20;4.90
32895;DHT22;19251;49.484;8.260;2023-06-26T08:41:21;31.40;4.90
32895;DHT22;19251;49.484;8.260;2023-06-26T08:46:23;31.40;4.30
32895;DHT22;19251;49.484;8.260;2023-06-26T08:51:28;31.50;4.00
32895;DHT22;19251;49.484;8.260;2023-06-26T08:56:51;31.50;3.50
32895;DHT22;19251;49.484;8.260;2023-06-26T09:01:53;31.50;3.70
32895;DHT22;19251;49.484;8.260;2023-06-26T09:06:56;31.70;4.10
32895;DHT22;19251;49.484;8.260;2023-06-26T09:11:58;31.90;2.80
32895;DHT22;19251;49.484;8.260;2023-06-26T09:17:01;32.00;3.60
32895;DHT22;19251;49.484;8.260;2023-06-26T09:22:04;32.10;3.00
32895;DHT22;19251;49.484;8.260;2023-06-26T09:27:06;32.10;3.10
32895;DHT22;19251;49.484;8.260;2023-06-26T09:32:09;32.20;3.00
32895;DHT22;19251;49.484;8.260;2023-06-26T09:37:14;32.50;2.20
32895;DHT22;19251;49.484;8.260;2023-06-26T09:42:16;32.50;2.70
32895;DHT22;19251;49.484;8.260;2023-06-26T09:47:19;32.70;2.50
32895;DHT22;19251;49.484;8.260;2023-06-26T09:52:26;32.80;2.20
32895;DHT22;19251;49.484;8.260;2023-06-26T09:57:30;32.90;1.90
32895;DHT22;19251;49.484;8.260;2023-06-26T10:02:32;32.90;2.10
32895;DHT22;19251;49.484;8.260;2023-06-26T10:07:36;33.00;1.70
32895;DHT22;19251;49.484;8.260;2023-06-26T10:12:39;32.90;1.60
32895;DHT22;19251;49.484;8.260;2023-06-26T10:17:43;32.90;2.00
32895;DHT22;19251;49.484;8.260;2023-06-26T10:22:48;33.00;1.80
32895;DHT22;19251;49.484;8.260;2023-06-26T10:27:54;33.20;1.90
32895;DHT22;19251;49.484;8.260;2023-06-26T10:32:57;32.90;1.20
32895;DHT22;19251;49.484;8.260;2023-06-26T10:38:02;33.30;1.20
32895;DHT22;19251;49.484;8.260;2023-06-26T10:43:08;33.20;1.00
32895;DHT22;19251;49.484;8.260;2023-06-26T10:48:14;33.00;1.00
32895;DHT22;19251;49.484;8.260;2023-06-26T10:58:34;33.00;1.80
32895;DHT22;19251;49.484;8.260;2023-06-26T11:03:41;33.00;1.00
32895;DHT22;19251;49.484;8.260;2023-06-26T11:08:49;33.10;1.00
32895;DHT22;19251;49.484;8.260;2023-06-26T11:13:52;33.10;1.00
32895;DHT22;19251;49.484;8.260;2023-06-26T11:18:58;33.30;1.00
32895;DHT22;19251;49.484;8.260;2023-06-26T11:24:01;33.50;1.00
32895;DHT22;19251;49.484;8.260;2023-06-26T11:29:04;33.70;1.00
32895;DHT22;19251;49.484;8.260;2023-06-26T11:34:09;33.80;1.00
32895;DHT22;19251;49.484;8.260;2023-06-26T11:39:15;34.10;1.00
32895;DHT22;19251;49.484;8.260;2023-06-26T11:44:18;34.30;1.00
32895;DHT22;19251;49.484;8.260;2023-06-26T11:49:23;34.40;1.00
32895;DHT22;19251;49.484;8.260;2023-06-26T11:54:27;34.60;1.00
32895;DHT22;19251;49.484;8.260;2023-06-26T11:59:38;34.70;1.00
32895;DHT22;19251;49.484;8.260;2023-06-26T12:04:42;34.90;1.00
32895;DHT22;19251;49.484;8.260;2023-06-26T12:09:47;34.90;1.00
32895;DHT22;19251;49.484;8.260;2023-06-26T12:14:51;35.10;1.00
32895;DHT22;19251;49.484;8.260;2023-06-26T12:19:54;35.20;1.00
32895;DHT22;19251;49.484;8.260;2023-06-26T12:24:56;35.20;1.00
32895;DHT22;19251;49.484;8.260;2023-06-26T12:30:03;35.50;1.00
32895;DHT22;19251;49.484;8.260;2023-06-26T12:35:06;35.50;1.00
32895;DHT22;19251;49.484;8.260;2023-06-26T12:40:20;35.60;1.00
32895;DHT22;19251;49.484;8.260;2023-06-26T12:45:25;35.70;1.00
32895;DHT22;19251;49.484;8.260;2023-06-26T12:50:44;35.80;1.00
32895;DHT22;19251;49.484;8.260;2023-06-26T12:55:47;36.00;1.00
32895;DHT22;19251;49.484;8.260;2023-06-26T13:00:50;36.10;1.00
32895;DHT22;19251;49.484;8.260;2023-06-26T13:05:52;36.10;1.00
32895;DHT22;19251;49.484;8.260;2023-06-26T13:10:54;36.20;1.00
32895;DHT22;19251;49.484;8.260;2023-06-26T13:15:57;36.10;1.00
32895;DHT22;19251;49.484;8.260;2023-06-26T13:20:59;36.00;1.00
32895;DHT22;19251;49.484;8.260;2023-06-26T13:26:02;36.00;1.00
32895;DHT22;19251;49.484;8.260;2023-06-26T13:31:04;35.90;1.00
32895;DHT22;19251;49.484;8.260;2023-06-26T13:36:06;35.90;1.00
32895;DHT22;19251;49.484;8.260;2023-06-26T13:41:09;36.00;1.00
32895;DHT22;19251;49.484;8.260;2023-06-26T13:46:11;35.90;1.00
32895;DHT22;19251;49.484;8.260;2023-06-26T13:51:13;36.00;1.00
32895;DHT22;19251;49.484;8.260;2023-06-26T13:56:16;36.20;1.00
32895;DHT22;19251;49.484;8.260;2023-06-26T14:01:18;36.30;1.00
32895;DHT22;19251;49.484;8.260;2023-06-26T14:06:20;36.30;1.00
32895;DHT22;19251;49.484;8.260;2023-06-26T14:11:25;36.40;1.00
32895;DHT22;19251;49.484;8.260;2023-06-26T14:16:28;36.60;1.00
32895;DHT22;19251;49.484;8.260;2023-06-26T14:26:35;36.70;1.00
32895;DHT22;19251;49.484;8.260;2023-06-26T14:31:38;36.60;1.00
32895;DHT22;19251;49.484;8.260;2023-06-26T14:36:41;36.40;1.00
32895;DHT22;19251;49.484;8.260;2023-06-26T14:41:43;36.20;1.00
32895;DHT22;19251;49.484;8.260;2023-06-26T14:46:45;35.90;1.00
32895;DHT22;19251;49.484;8.260;2023-06-26T14:51:48;35.90;1.00
32895;DHT22;19251;49.484;8.260;2023-06-26T14:56:50;36.40;1.00
32895;DHT22;19251;49.484;8.260;2023-06-26T15:01:52;36.90;1.00
32895;DHT22;19251;49.484;8.260;2023-06-26T15:06:57;37.40;1.00
32895;DHT22;19251;49.484;8.260;2023-06-26T15:11:59;37.50;1.00
32895;DHT22;19251;49.484;8.260;2023-06-26T15:17:02;37.20;1.00
32895;DHT22;19251;49.484;8.260;2023-06-26T15:22:04;37.00;1.00
32895;DHT22;19251;49.484;8.260;2023-06-26T15:27:06;36.90;1.00
32895;DHT22;19251;49.484;8.260;2023-06-26T15:32:09;37.00;1.00
32895;DHT22;19251;49.484;8.260;2023-06-26T15:37:12;37.00;1.00
32895;DHT22;19251;49.484;8.260;2023-06-26T15:42:14;37.30;1.00
32895;DHT22;19251;49.484;8.260;2023-06-26T15:47:16;37.70;1.00
32895;DHT22;19251;49.484;8.260;2023-06-26T15:52:18;38.20;1.00
32895;DHT22;19251;49.484;8.260;2023-06-26T15:57:21;38.70;1.00
32895;DHT22;19251;49.484;8.260;2023-06-26T16:02:23;39.20;1.00
32895;DHT22;19251;49.484;8.260;2023-06-26T16:07:25;39.70;1.00
32895;DHT22;19251;49.484;8.260;2023-06-26T16:12:48;40.00;1.00
32895;DHT22;19251;49.484;8.260;2023-06-26T16:17:50;40.10;1.00
32895;DHT22;19251;49.484;8.260;2023-06-26T16:22:52;40.40;1.00
32895;DHT22;19251;49.484;8.260;2023-06-26T16:27:57;40.60;1.00
32895;DHT22;19251;49.484;8.260;2023-06-26T16:32:59;40.70;1.00
32895;DHT22;19251;49.484;8.260;2023-06-26T16:38:03;40.90;1.00
32895;DHT22;19251;49.484;8.260;2023-06-26T16:43:08;41.00;1.00
32895;DHT22;19251;49.484;8.260;2023-06-26T16:48:10;40.90;1.00
32895;DHT22;19251;49.484;8.260;2023-06-26T16:53:12;40.50;1.00
32895;DHT22;19251;49.484;8.260;2023-06-26T16:58:14;40.30;1.00
32895;DHT22;19251;49.484;8.260;2023-06-26T17:03:18;40.10;1.00
32895;DHT22;19251;49.484;8.260;2023-06-26T17:08:23;39.50;1.00
32895;DHT22;19251;49.484;8.260;2023-06-26T17:13:25;38.90;1.00
32895;DHT22;19251;49.484;8.260;2023-06-26T17:18:27;38.30;1.00
32895;DHT22;19251;49.484;8.260;2023-06-26T17:23:29;37.60;1.00
32895;DHT22;19251;49.484;8.260;2023-06-26T17:28:32;37.00;1.00
32895;DHT22;19251;49.484;8.260;2023-06-26T17:33:34;36.60;1.00
32895;DHT22;19251;49.484;8.260;2023-06-26T17:38:36;36.10;1.00
32895;DHT22;19251;49.484;8.260;2023-06-26T17:43:39;35.60;1.00
32895;DHT22;19251;49.484;8.260;2023-06-26T17:48:42;35.10;1.00
32895;DHT22;19251;49.484;8.260;2023-06-26T17:53:44;34.70;1.00
32895;DHT22;19251;49.484;8.260;2023-06-26T17:58:46;34.30;1.00
32895;DHT22;19251;49.484;8.260;2023-06-26T18:03:49;33.80;1.00
32895;DHT22;19251;49.484;8.260;2023-06-26T18:08:52;33.60;1.00
32895;DHT22;19251;49.484;8.260;2023-06-26T18:13:55;33.20;1.00
32895;DHT22;19251;49.484;8.260;2023-06-26T18:18:57;32.70;1.00
32895;DHT22;19251;49.484;8.260;2023-06-26T18:24:02;32.30;1.00
32895;DHT22;19251;49.484;8.260;2023-06-26T18:29:04;32.00;1.00
32895;DHT22;19251;49.484;8.260;2023-06-26T18:34:06;31.80;1.00
32895;DHT22;19251;49.484;8.260;2023-06-26T18:39:08;31.50;1.00
32895;DHT22;19251;49.484;8.260;2023-06-26T18:44:10;31.10;1.00
32895;DHT22;19251;49.484;8.260;2023-06-26T18:49:14;30.80;1.00
32895;DHT22;19251;49.484;8.260;2023-06-26T18:54:16;30.50;1.00
32895;DHT22;19251;49.484;8.260;2023-06-26T18:59:19;30.10;1.00
32895;DHT22;19251;49.484;8.260;2023-06-26T19:04:21;29.80;1.00
32895;DHT22;19251;49.484;8.260;2023-06-26T19:09:25;29.60;1.00
32895;DHT22;19251;49.484;8.260;2023-06-26T19:14:29;29.30;1.00
32895;DHT22;19251;49.484;8.260;2023-06-26T19:19:31;29.20;1.00
32895;DHT22;19251;49.484;8.260;2023-06-26T19:24:33;28.80;1.00
32895;DHT22;19251;49.484;8.260;2023-06-26T19:29:36;28.80;1.00
32895;DHT22;19251;49.484;8.260;2023-06-26T19:34:38;28.60;1.00
32895;DHT22;19251;49.484;8.260;2023-06-26T19:39:40;28.00;1.00
32895;DHT22;19251;49.484;8.260;2023-06-26T19:44:42;28.20;1.00
32895;DHT22;19251;49.484;8.260;2023-06-26T19:49:45;28.10;1.00
32895;DHT22;19251;49.484;8.260;2023-06-26T19:54:47;27.90;1.00
32895;DHT22;19251;49.484;8.260;2023-06-26T19:59:49;28.00;1.00
32895;DHT22;19251;49.484;8.260;2023-06-26T20:04:52;27.80;1.00
32895;DHT22;19251;49.484;8.260;2023-06-26T20:09:54;27.80;1.00
32895;DHT22;19251;49.484;8.260;2023-06-26T20:14:56;27.60;1.00
32895;DHT22;19251;49.484;8.260;2023-06-26T20:19:58;27.50;1.00
32895;DHT22;19251;49.484;8.260;2023-06-26T20:25:01;27.10;1.00
32895;DHT22;19251;49.484;8.260;2023-06-26T20:30:05;26.90;1.00
32895;DHT22;19251;49.484;8.260;2023-06-26T20:35:08;26.80;1.00
32895;DHT22;19251;49.484;8.260;2023-06-26T20:40:11;26.50;1.00
32895;DHT22;19251;49.484;8.260;2023-06-26T20:45:13;26.30;1.00
32895;DHT22;19251;49.484;8.260;2023-06-26T20:50:18;26.00;1.00
32895;DHT22;19251;49.484;8.260;2023-06-26T20:55:21;26.10;1.00
32895;DHT22;19251;49.484;8.260;2023-06-26T21:00:23;26.00;1.00
32895;DHT22;19251;49.484;8.260;2023-06-26T21:05:25;25.90;1.40
32895;DHT22;19251;49.484;8.260;2023-06-26T21:10:28;25.90;2.10
32895;DHT22;19251;49.484;8.260;2023-06-26T21:15:30;25.60;1.20
32895;DHT22;19251;49.484;8.260;2023-06-26T21:20:32;26.30;2.90
32895;DHT22;19251;49.484;8.260;2023-06-26T21:25:34;25.50;2.50
32895;DHT22;19251;49.484;8.260;2023-06-26T21:30:37;25.50;2.90
32895;DHT22;19251;49.484;8.260;2023-06-26T21:35:39;25.30;3.90
32895;DHT22;19251;49.484;8.260;2023-06-26T21:40:45;25.10;3.00
32895;DHT22;19251;49.484;8.260;2023-06-26T21:45:48;25.00;2.70
32895;DHT22;19251;49.484;8.260;2023-06-26T21:50:50;24.90;3.40
32895;DHT22;19251;49.484;8.260;2023-06-26T21:55:52;24.80;3.50
32895;DHT22;19251;49.484;8.260;2023-06-26T22:00:55;24.80;4.40
32895;DHT22;19251;49.484;8.260;2023-06-26T22:05:57;24.70;4.90
32895;DHT22;19251;49.484;8.260;2023-06-26T22:10:59;24.60;4.90
32895;DHT22;19251;49.484;8.260;2023-06-26T22:16:01;24.40;4.30
32895;DHT22;19251;49.484;8.260;2023-06-26T22:21:04;24.40;5.40
32895;DHT22;19251;49.484;8.260;2023-06-26T22:26:08;24.50;5.60
32895;DHT22;19251;49.484;8.260;2023-06-26T22:31:10;23.80;4.70
32895;DHT22;19251;49.484;8.260;2023-06-26T22:36:12;24.20;5.80
32895;DHT22;19251;49.484;8.260;2023-06-26T22:41:15;24.10;4.90
32895;DHT22;19251;49.484;8.260;2023-06-26T22:46:17;24.00;5.90
32895;DHT22;19251;49.484;8.260;2023-06-26T23:03:22;23.70;5.90
